createdAt,value
2023-04-12T00:00:00.268Z,4.60
2023-04-12T00:02:27.939Z,4.60
2023-04-12T00:04:58.931Z,4.50
2023-04-12T00:07:26.319Z,4.60
2023-04-12T00:09:53.624Z,4.60
2023-04-12T00:12:20.971Z,4.60
2023-04-12T00:14:51.377Z,4.60
2023-04-12T00:17:20.162Z,4.60
2023-04-12T00:19:48.792Z,4.60
2023-04-12T00:22:16.567Z,4.70
2023-04-12T00:24:44.200Z,4.60
2023-04-12T00:27:11.962Z,4.60
2023-04-12T00:29:39.141Z,4.50
2023-04-12T00:32:06.607Z,4.40
2023-04-12T00:34:34.531Z,4.40
2023-04-12T00:37:02.897Z,4.30
2023-04-12T00:39:30.328Z,4.30
2023-04-12T00:41:57.712Z,4.30
2023-04-12T00:44:25.280Z,4.20
2023-04-12T00:46:55.424Z,4.20
2023-04-12T00:49:22.779Z,4.10
2023-04-12T00:51:50.080Z,4.10
2023-04-12T00:54:18.394Z,4.00
2023-04-12T00:56:47.523Z,4.00
2023-04-12T00:59:15.148Z,4.00
2023-04-12T01:01:42.523Z,4.00
2023-04-12T01:04:14.234Z,4.00
2023-04-12T01:07:01.828Z,3.90
2023-04-12T01:09:50.310Z,4.00
2023-04-12T01:12:22.215Z,4.10
2023-04-12T01:14:58.806Z,4.10
2023-04-12T01:17:31.964Z,4.00
2023-04-12T01:20:23.041Z,4.00
2023-04-12T01:23:04.003Z,4.00
2023-04-12T01:25:54.319Z,4.00
2023-04-12T01:28:29.744Z,4.00
2023-04-12T01:30:57.029Z,4.00
2023-04-12T01:33:31.599Z,4.00
2023-04-12T01:36:01.865Z,3.90
2023-04-12T01:38:30.061Z,3.80
2023-04-12T01:40:57.886Z,3.80
2023-04-12T01:43:26.025Z,3.70
2023-04-12T01:45:53.330Z,3.70
2023-04-12T01:48:21.046Z,3.70
2023-04-12T01:50:57.403Z,3.70
2023-04-12T01:53:38.004Z,3.60
2023-04-12T01:56:10.236Z,3.60
2023-04-12T01:58:40.903Z,3.50
2023-04-12T02:01:09.674Z,3.50
2023-04-12T02:03:38.189Z,3.60
2023-04-12T02:06:07.056Z,3.70
2023-04-12T02:08:34.658Z,3.60
2023-04-12T02:11:02.059Z,3.60
2023-04-12T02:13:29.354Z,3.50
2023-04-12T02:15:57.512Z,3.50
2023-04-12T02:18:24.812Z,3.40
2023-04-12T02:20:52.089Z,3.50
2023-04-12T02:23:19.406Z,3.40
2023-04-12T02:25:46.981Z,3.40
2023-04-12T02:28:15.457Z,3.30
2023-04-12T02:30:43.441Z,3.30
2023-04-12T02:33:12.024Z,3.30
2023-04-12T02:35:40.453Z,3.30
2023-04-12T02:38:08.833Z,3.30
2023-04-12T02:40:43.090Z,3.30
2023-04-12T02:43:10.632Z,3.20
2023-04-12T02:45:39.125Z,3.20
2023-04-12T02:48:06.833Z,3.10
2023-04-12T02:50:34.798Z,3.10
2023-04-12T02:53:02.497Z,3.10
2023-04-12T02:55:30.883Z,3.00
2023-04-12T02:57:58.879Z,3.00
2023-04-12T03:00:26.351Z,3.00
2023-04-12T03:02:54.264Z,3.00
2023-04-12T03:05:22.021Z,3.10
2023-04-12T03:07:49.354Z,3.10
2023-04-12T03:10:16.860Z,3.00
2023-04-12T03:12:44.251Z,2.90
2023-04-12T03:15:11.836Z,2.90
2023-04-12T03:17:39.359Z,2.80
2023-04-12T03:20:10.423Z,2.80
2023-04-12T03:22:38.755Z,2.70
2023-04-12T03:25:06.984Z,2.70
2023-04-12T03:27:35.282Z,2.70
2023-04-12T03:30:02.741Z,2.70
2023-04-12T03:32:32.801Z,2.60
2023-04-12T03:35:01.031Z,2.60
2023-04-12T03:37:28.472Z,2.50
2023-04-12T03:39:55.832Z,2.50
2023-04-12T03:42:32.842Z,2.50
2023-04-12T03:45:01.606Z,2.50
2023-04-12T03:47:29.263Z,2.60
2023-04-12T03:52:32.890Z,2.40
2023-04-12T03:55:01.723Z,2.40
2023-04-12T03:57:29.442Z,2.30
2023-04-12T03:59:56.832Z,2.30
2023-04-12T04:02:24.477Z,2.30
2023-04-12T04:04:52.088Z,2.30
2023-04-12T04:07:19.984Z,2.40
2023-04-12T04:09:47.309Z,2.30
2023-04-12T04:12:14.534Z,2.20
2023-04-12T04:14:41.887Z,2.10
2023-04-12T04:17:09.198Z,2.10
2023-04-12T04:19:36.725Z,2.00
2023-04-12T04:22:04.945Z,2.00
2023-04-12T04:24:32.262Z,2.00
2023-04-12T04:27:00.547Z,2.00
2023-04-12T04:29:29.641Z,1.90
2023-04-12T04:31:58.488Z,2.00
2023-04-12T04:34:26.687Z,2.00
2023-04-12T04:36:54.628Z,2.10
2023-04-12T04:39:21.961Z,2.10
2023-04-12T04:41:55.138Z,2.10
2023-04-12T04:44:22.621Z,2.10
2023-04-12T04:46:50.420Z,2.10
2023-04-12T04:49:17.836Z,2.10
2023-04-12T04:51:45.251Z,2.20
2023-04-12T04:54:14.173Z,2.20
2023-04-12T04:56:41.549Z,2.40
2023-04-12T04:59:09.488Z,2.60
2023-04-12T05:01:36.969Z,2.80
2023-04-12T05:04:04.556Z,2.80
2023-04-12T05:06:31.886Z,2.90
2023-04-12T05:09:01.085Z,3.00
2023-04-12T05:11:28.569Z,3.10
2023-04-12T05:13:56.056Z,3.20
2023-04-12T05:16:26.696Z,3.40
2023-04-12T05:18:54.560Z,3.50
2023-04-12T05:21:24.079Z,3.70
2023-04-12T05:23:52.138Z,3.80
2023-04-12T05:26:21.906Z,4.00
2023-04-12T05:28:49.200Z,4.20
2023-04-12T05:31:16.678Z,4.40
2023-04-12T05:33:45.153Z,4.60
2023-04-12T05:36:13.084Z,4.80
2023-04-12T05:38:40.671Z,5.10
2023-04-12T05:41:07.985Z,5.20
2023-04-12T05:43:37.947Z,5.30
2023-04-12T05:46:08.282Z,5.50
2023-04-12T05:48:36.044Z,5.70
2023-04-12T05:51:05.233Z,5.90
2023-04-12T05:53:33.261Z,6.20
2023-04-12T05:56:00.733Z,6.40
2023-04-12T05:58:28.070Z,6.60
2023-04-12T06:00:56.117Z,6.80
2023-04-12T06:03:27.115Z,7.10
2023-04-12T06:05:54.678Z,7.30
2023-04-12T06:08:22.046Z,7.50
2023-04-12T06:10:49.375Z,7.50
2023-04-12T06:13:16.746Z,7.60
2023-04-12T06:15:44.278Z,7.50
2023-04-12T06:18:13.216Z,7.60
2023-04-12T06:20:41.140Z,7.80
2023-04-12T06:23:08.543Z,7.90
2023-04-12T06:25:35.889Z,8.00
2023-04-12T06:28:03.326Z,8.10
2023-04-12T06:30:30.731Z,8.30
2023-04-12T06:32:58.269Z,8.50
2023-04-12T06:35:25.919Z,8.80
2023-04-12T06:37:53.210Z,8.70
2023-04-12T06:40:20.744Z,8.80
2023-04-12T06:42:48.181Z,9.10
2023-04-12T06:45:15.544Z,9.20
2023-04-12T06:47:42.915Z,9.30
2023-04-12T06:50:10.903Z,9.40
2023-04-12T06:52:39.643Z,9.50
2023-04-12T06:55:07.827Z,9.50
2023-04-12T06:57:35.285Z,9.70
2023-04-12T07:00:04.454Z,10.00
2023-04-12T07:02:32.898Z,10.30
2023-04-12T07:05:00.967Z,10.50
2023-04-12T07:07:29.315Z,10.60
2023-04-12T07:09:56.747Z,10.70
2023-04-12T07:12:24.661Z,10.50
2023-04-12T07:14:52.125Z,10.30
2023-04-12T07:17:21.721Z,10.40
2023-04-12T07:19:51.072Z,10.70
2023-04-12T07:22:18.964Z,10.80
2023-04-12T07:24:46.376Z,10.90
2023-04-12T07:27:13.811Z,11.10
2023-04-12T07:29:41.592Z,11.40
2023-04-12T07:32:11.443Z,11.40
2023-04-12T07:34:45.217Z,11.60
2023-04-12T07:37:13.688Z,11.70
2023-04-12T07:39:41.244Z,11.90
2023-04-12T07:42:09.358Z,11.90
2023-04-12T07:44:38.633Z,12.10
2023-04-12T07:47:07.517Z,12.10
2023-04-12T07:49:34.920Z,12.20
2023-04-12T07:52:02.727Z,12.50
2023-04-12T07:54:30.126Z,12.70
2023-04-12T07:57:03.613Z,12.90
2023-04-12T07:59:32.054Z,13.20
2023-04-12T08:02:00.045Z,13.40
2023-04-12T08:04:28.681Z,13.30
2023-04-12T08:06:57.339Z,12.90
2023-04-12T08:09:25.653Z,12.40
2023-04-12T08:11:53.417Z,12.30
2023-04-12T08:14:20.963Z,12.20
2023-04-12T08:16:48.919Z,12.40
2023-04-12T08:19:16.358Z,12.70
2023-04-12T08:21:43.735Z,13.10
2023-04-12T08:24:11.434Z,13.60
2023-04-12T08:26:39.174Z,13.80
2023-04-12T08:29:07.088Z,14.40
2023-04-12T08:31:34.698Z,14.60
2023-04-12T08:34:01.991Z,14.80
2023-04-12T08:36:29.379Z,14.40
2023-04-12T08:39:03.199Z,13.80
2023-04-12T08:41:30.506Z,13.20
2023-04-12T08:43:59.840Z,12.90
2023-04-12T08:46:28.487Z,13.10
2023-04-12T08:48:57.654Z,13.60
2023-04-12T08:51:25.095Z,14.20
2023-04-12T08:53:54.450Z,14.40
2023-04-12T08:56:23.710Z,15.00
2023-04-12T08:58:53.062Z,15.00
2023-04-12T09:01:21.659Z,15.00
2023-04-12T09:03:49.076Z,14.40
2023-04-12T09:06:16.677Z,14.40
2023-04-12T09:08:55.298Z,14.80
2023-04-12T09:11:29.864Z,15.20
2023-04-12T09:13:58.952Z,15.30
2023-04-12T09:16:36.369Z,15.20
2023-04-12T09:19:03.960Z,15.50
2023-04-12T09:21:34.962Z,15.40
2023-04-12T09:24:13.385Z,15.20
2023-04-12T09:26:42.066Z,14.70
2023-04-12T09:29:25.816Z,14.80
2023-04-12T09:32:04.271Z,14.70
2023-04-12T09:34:32.842Z,14.60
2023-04-12T09:37:02.383Z,15.10
2023-04-12T09:39:37.530Z,15.80
2023-04-12T09:42:32.544Z,16.50
2023-04-12T09:45:03.197Z,16.70
2023-04-12T09:47:41.505Z,16.80
2023-04-12T09:50:10.157Z,17.20
2023-04-12T09:52:39.576Z,16.90
2023-04-12T09:55:11.303Z,16.40
2023-04-12T09:57:43.893Z,15.80
2023-04-12T10:00:18.374Z,15.40
2023-04-12T10:02:49.042Z,15.50
2023-04-12T10:05:21.245Z,15.80
2023-04-12T10:07:50.303Z,16.10
2023-04-12T10:10:19.791Z,15.90
2023-04-12T10:12:48.825Z,16.20
2023-04-12T10:15:18.560Z,16.10
2023-04-12T10:17:48.373Z,16.40
2023-04-12T10:20:17.483Z,17.00
2023-04-12T10:22:51.003Z,16.70
2023-04-12T10:25:24.045Z,16.70
2023-04-12T10:27:52.125Z,16.20
2023-04-12T10:30:30.394Z,15.50
2023-04-12T10:33:08.495Z,15.00
2023-04-12T10:35:56.692Z,14.40
2023-04-12T10:38:27.086Z,14.20
2023-04-12T10:41:19.608Z,14.10
2023-04-12T10:43:53.569Z,14.20
2023-04-12T10:46:39.330Z,14.80
2023-04-12T10:49:11.390Z,16.40
2023-04-12T10:51:39.241Z,17.80
2023-04-12T10:54:12.461Z,18.40
2023-04-12T10:56:42.219Z,18.30
2023-04-12T10:59:13.279Z,18.00
2023-04-12T11:02:12.350Z,17.80
2023-04-12T11:05:10.913Z,17.90
2023-04-12T11:07:43.390Z,18.20
2023-04-12T11:10:20.249Z,17.60
2023-04-12T11:12:51.491Z,17.60
2023-04-12T11:15:19.758Z,17.90
2023-04-12T11:17:55.676Z,18.40
2023-04-12T11:20:23.657Z,19.10
2023-04-12T11:22:52.054Z,18.80
2023-04-12T11:25:19.773Z,19.10
2023-04-12T11:27:55.175Z,19.80
2023-04-12T11:30:23.888Z,20.20
2023-04-12T11:32:51.452Z,20.20
2023-04-12T11:35:24.878Z,20.10
2023-04-12T11:37:53.216Z,19.90
2023-04-12T11:40:23.358Z,20.50
2023-04-12T11:42:50.989Z,21.40
2023-04-12T11:45:22.411Z,21.80
2023-04-12T11:47:50.232Z,21.20
2023-04-12T11:50:31.230Z,21.30
2023-04-12T11:53:11.951Z,20.50
2023-04-12T11:55:39.475Z,20.50
2023-04-12T11:58:07.480Z,20.40
2023-04-12T12:00:35.188Z,20.40
2023-04-12T12:05:37.722Z,21.90
2023-04-12T12:08:08.153Z,21.70
2023-04-12T12:10:55.638Z,21.20
2023-04-12T12:13:28.289Z,21.40
2023-04-12T12:15:57.540Z,22.60
2023-04-12T12:18:29.525Z,21.70
2023-04-12T12:20:56.974Z,21.40
2023-04-12T12:23:34.413Z,20.90
2023-04-12T12:26:18.397Z,19.70
2023-04-12T12:28:50.756Z,20.10
2023-04-12T12:31:22.076Z,20.40
2023-04-12T12:33:53.001Z,20.70
2023-04-12T12:36:21.325Z,20.70
2023-04-12T12:38:49.542Z,20.50
2023-04-12T12:41:18.314Z,20.20
2023-04-12T12:43:50.942Z,20.30
2023-04-12T12:46:20.524Z,20.10
2023-04-12T12:48:49.886Z,19.20
2023-04-12T12:51:18.168Z,18.60
2023-04-12T12:53:46.805Z,18.00
2023-04-12T12:56:17.036Z,18.80
2023-04-12T12:58:44.529Z,18.40
2023-04-12T13:01:12.052Z,19.00
2023-04-12T13:03:39.568Z,19.50
2023-04-12T13:06:07.815Z,19.30
2023-04-12T13:08:37.698Z,19.00
2023-04-12T13:11:05.144Z,19.40
2023-04-12T13:13:32.480Z,20.20
2023-04-12T13:15:59.836Z,20.20
2023-04-12T13:18:27.361Z,19.70
2023-04-12T13:20:54.854Z,18.70
2023-04-12T13:23:22.317Z,18.70
2023-04-12T13:25:49.716Z,19.20
2023-04-12T13:28:20.995Z,19.80
2023-04-12T13:30:49.025Z,19.90
2023-04-12T13:33:20.143Z,20.70
2023-04-12T13:35:49.223Z,20.70
2023-04-12T13:38:16.510Z,19.80
2023-04-12T13:40:43.805Z,19.60
2023-04-12T13:43:11.690Z,18.70
2023-04-12T13:45:39.299Z,18.60
2023-04-12T13:48:06.807Z,19.20
2023-04-12T13:50:34.102Z,19.80
2023-04-12T13:53:02.024Z,20.30
2023-04-12T13:55:29.599Z,20.30
2023-04-12T13:57:57.803Z,19.60
2023-04-12T14:00:25.889Z,20.00
2023-04-12T14:02:53.147Z,19.80
2023-04-12T14:05:20.711Z,18.90
2023-04-12T14:07:50.126Z,19.00
2023-04-12T14:10:17.532Z,19.20
2023-04-12T14:12:45.940Z,19.20
2023-04-12T14:15:13.665Z,19.50
2023-04-12T14:17:41.534Z,19.50
2023-04-12T14:20:13.070Z,19.50
2023-04-12T14:22:43.686Z,19.20
2023-04-12T14:25:12.055Z,18.90
2023-04-12T14:27:39.813Z,18.50
2023-04-12T14:30:08.875Z,17.90
2023-04-12T14:32:36.672Z,18.10
2023-04-12T14:35:05.879Z,18.40
2023-04-12T14:37:36.298Z,18.30
2023-04-12T14:40:06.765Z,18.30
2023-04-12T14:42:38.908Z,18.20
2023-04-12T14:45:08.393Z,17.60
2023-04-12T14:47:36.390Z,17.50
2023-04-12T14:50:05.665Z,17.50
2023-04-12T14:52:33.114Z,17.60
2023-04-12T14:55:01.847Z,17.70
2023-04-12T14:57:30.387Z,17.80
2023-04-12T14:59:58.027Z,18.10
2023-04-12T15:02:26.512Z,18.00
2023-04-12T15:04:54.427Z,17.80
2023-04-12T15:07:22.274Z,17.60
2023-04-12T15:09:49.719Z,17.30
2023-04-12T15:12:17.645Z,17.20
2023-04-12T15:14:45.768Z,17.50
2023-04-12T15:17:13.227Z,17.80
2023-04-12T15:19:40.859Z,17.80
2023-04-12T15:22:08.176Z,17.70
2023-04-12T15:24:35.739Z,17.60
2023-04-12T15:27:06.328Z,17.50
2023-04-12T15:29:35.093Z,17.60
2023-04-12T15:32:03.821Z,17.60
2023-04-12T15:34:34.907Z,17.50
2023-04-12T15:37:03.454Z,17.40
2023-04-12T15:39:31.208Z,17.20
2023-04-12T15:41:58.572Z,17.10
2023-04-12T15:44:33.064Z,16.30
2023-04-12T15:47:10.822Z,16.40
2023-04-12T15:49:40.561Z,16.40
2023-04-12T15:52:08.265Z,16.50
2023-04-12T15:54:35.823Z,16.40
2023-04-12T15:57:09.723Z,16.10
2023-04-12T15:59:38.968Z,16.10
2023-04-12T16:02:09.145Z,15.90
2023-04-12T16:04:41.136Z,15.80
2023-04-12T16:07:09.814Z,15.70
2023-04-12T16:09:39.112Z,15.40
2023-04-12T16:12:08.304Z,15.30
2023-04-12T16:14:37.105Z,15.30
2023-04-12T16:17:04.449Z,15.10
2023-04-12T16:19:33.027Z,14.90
2023-04-12T16:22:00.993Z,14.70
2023-04-12T16:24:28.888Z,14.30
2023-04-12T16:26:58.082Z,14.20
2023-04-12T16:29:25.492Z,14.10
2023-04-12T16:31:53.196Z,14.10
2023-04-12T16:34:23.160Z,14.10
2023-04-12T16:36:52.026Z,14.20
2023-04-12T16:39:26.863Z,14.10
2023-04-12T16:41:57.748Z,14.00
2023-04-12T16:44:27.343Z,14.00
2023-04-12T16:46:55.386Z,13.80
2023-04-12T16:49:23.402Z,13.70
2023-04-12T16:51:51.280Z,13.50
2023-04-12T16:54:19.183Z,13.50
2023-04-12T16:56:47.569Z,13.50
2023-04-12T16:59:16.063Z,13.20
2023-04-12T17:01:47.201Z,13.20
2023-04-12T17:04:15.419Z,13.20
2023-04-12T17:06:44.539Z,13.10
2023-04-12T17:09:11.815Z,13.10
2023-04-12T17:11:43.559Z,12.90
2023-04-12T17:14:11.590Z,12.80
2023-04-12T17:16:39.493Z,12.80
2023-04-12T17:19:10.034Z,12.80
2023-04-12T17:21:41.725Z,12.70
2023-04-12T17:24:11.023Z,12.60
2023-04-12T17:26:38.853Z,12.40
2023-04-12T17:29:07.263Z,12.30
2023-04-12T17:31:36.599Z,12.20
2023-04-12T17:34:04.224Z,12.20
2023-04-12T17:36:34.489Z,12.10
2023-04-12T17:39:05.197Z,11.90
2023-04-12T17:41:32.600Z,11.80
2023-04-12T17:44:00.662Z,11.80
2023-04-12T17:46:28.281Z,11.60
2023-04-12T17:48:55.858Z,11.60
2023-04-12T17:51:23.495Z,11.50
2023-04-12T17:53:51.064Z,11.40
2023-04-12T17:56:19.103Z,11.30
2023-04-12T17:58:47.217Z,11.30
2023-04-12T18:01:17.696Z,11.20
2023-04-12T18:03:45.064Z,11.10
2023-04-12T18:06:14.082Z,11.00
2023-04-12T18:08:41.363Z,11.00
2023-04-12T18:11:09.424Z,10.90
2023-04-12T18:13:37.103Z,10.90
2023-04-12T18:16:04.516Z,10.80
2023-04-12T18:18:31.823Z,10.80
2023-04-12T18:20:59.243Z,10.70
2023-04-12T18:23:26.765Z,10.60
2023-04-12T18:25:54.070Z,10.50
2023-04-12T18:28:21.383Z,10.50
2023-04-12T18:30:48.713Z,10.40
2023-04-12T18:33:16.736Z,10.40
2023-04-12T18:35:45.162Z,10.40
2023-04-12T18:38:12.448Z,10.20
2023-04-12T18:40:40.538Z,10.20
2023-04-12T18:43:08.312Z,10.10
2023-04-12T18:45:40.715Z,10.10
2023-04-12T18:48:09.180Z,10.10
2023-04-12T18:50:42.511Z,10.10
2023-04-12T18:53:11.038Z,10.00
2023-04-12T18:55:38.371Z,10.00
2023-04-12T18:58:05.692Z,10.00
2023-04-12T19:00:34.155Z,9.90
2023-04-12T19:03:01.813Z,9.90
2023-04-12T19:05:29.506Z,9.90
2023-04-12T19:07:57.067Z,9.80
2023-04-12T19:10:30.885Z,9.70
2023-04-12T19:12:59.168Z,9.70
2023-04-12T19:15:26.567Z,9.60
2023-04-12T19:17:54.031Z,9.60
2023-04-12T19:20:21.318Z,9.60
2023-04-12T19:22:48.674Z,9.50
2023-04-12T19:25:18.231Z,9.50
2023-04-12T19:27:47.179Z,9.60
2023-04-12T19:30:15.149Z,9.50
2023-04-12T19:32:43.115Z,9.50
2023-04-12T19:35:11.117Z,9.40
2023-04-12T19:37:38.642Z,9.30
2023-04-12T19:40:07.153Z,9.20
2023-04-12T19:42:34.512Z,9.10
2023-04-12T19:45:02.668Z,9.10
2023-04-12T19:47:30.190Z,9.10
2023-04-12T19:49:58.454Z,9.00
2023-04-12T19:52:27.666Z,9.00
2023-04-12T19:54:58.268Z,9.00
2023-04-12T19:57:27.909Z,9.00
2023-04-12T19:59:55.792Z,8.90
2023-04-12T20:02:24.879Z,8.90
2023-04-12T20:04:52.759Z,8.80
2023-04-12T20:07:20.070Z,8.80
2023-04-12T20:09:47.420Z,8.80
2023-04-12T20:12:16.920Z,8.70
2023-04-12T20:14:44.145Z,8.70
2023-04-12T20:17:12.328Z,8.60
2023-04-12T20:19:40.613Z,8.50
2023-04-12T20:22:07.962Z,8.50
2023-04-12T20:24:35.259Z,8.50
2023-04-12T20:27:02.976Z,8.60
2023-04-12T20:29:32.323Z,8.60
2023-04-12T20:31:59.639Z,8.60
2023-04-12T20:34:27.118Z,8.70
2023-04-12T20:36:56.119Z,8.70
2023-04-12T20:39:23.597Z,8.80
2023-04-12T20:41:51.724Z,8.80
2023-04-12T20:44:20.090Z,8.80
2023-04-12T20:46:47.676Z,8.80
2023-04-12T20:49:15.334Z,8.80
2023-04-12T20:51:42.801Z,8.70
2023-04-12T20:54:10.886Z,8.60
2023-04-12T20:56:38.297Z,8.60
2023-04-12T20:59:05.761Z,8.70
2023-04-12T21:01:33.706Z,8.80
2023-04-12T21:04:06.232Z,8.90
2023-04-12T21:06:34.960Z,8.90
2023-04-12T21:09:04.907Z,8.90
2023-04-12T21:11:32.526Z,8.90
2023-04-12T21:14:00.002Z,8.90
2023-04-12T21:16:27.389Z,8.90
2023-04-12T21:18:54.919Z,8.90
2023-04-12T21:21:22.784Z,8.90
2023-04-12T21:23:51.717Z,9.00
2023-04-12T21:26:18.960Z,8.90
2023-04-12T21:28:50.286Z,8.90
2023-04-12T21:31:18.313Z,8.90
2023-04-12T21:33:45.657Z,9.00
2023-04-12T21:36:13.357Z,9.00
2023-04-12T21:38:41.539Z,8.90
2023-04-12T21:41:13.339Z,8.90
2023-04-12T21:43:41.315Z,9.00
2023-04-12T21:46:09.493Z,8.90
2023-04-12T21:48:37.595Z,8.90
2023-04-12T21:51:05.363Z,8.90
2023-04-12T21:53:32.715Z,8.90
2023-04-12T21:56:01.343Z,8.80
2023-04-12T21:58:32.802Z,8.80
2023-04-12T22:01:00.289Z,8.80
2023-04-12T22:03:29.047Z,8.80
2023-04-12T22:06:04.440Z,8.80
2023-04-12T22:08:33.367Z,8.80
2023-04-12T22:11:01.642Z,8.80
2023-04-12T22:13:29.359Z,8.80
2023-04-12T22:15:58.349Z,8.80
2023-04-12T22:18:25.575Z,8.80
2023-04-12T22:20:53.316Z,8.80
2023-04-12T22:23:20.849Z,8.80
2023-04-12T22:25:49.907Z,8.80
2023-04-12T22:28:17.352Z,8.90
2023-04-12T22:30:44.709Z,8.90
2023-04-12T22:33:13.942Z,9.00
2023-04-12T22:35:41.338Z,9.00
2023-04-12T22:38:08.721Z,9.00
2023-04-12T22:40:37.341Z,9.00
2023-04-12T22:43:04.687Z,8.90
2023-04-12T22:45:32.376Z,9.00
2023-04-12T22:47:59.632Z,9.00
2023-04-12T22:50:27.036Z,9.00
2023-04-12T22:52:54.740Z,9.00
2023-04-12T22:55:22.464Z,9.00
2023-04-12T22:57:49.786Z,8.90
2023-04-12T23:00:18.486Z,8.90
2023-04-12T23:02:46.802Z,8.90
2023-04-12T23:05:14.486Z,9.00
2023-04-12T23:07:42.422Z,9.00
2023-04-12T23:10:11.022Z,8.90
2023-04-12T23:12:39.429Z,8.80
2023-04-12T23:15:07.176Z,8.80
2023-04-12T23:17:34.592Z,8.80
2023-04-12T23:20:02.235Z,8.70
2023-04-12T23:22:56.107Z,8.70
2023-04-12T23:25:39.936Z,8.70
2023-04-12T23:28:15.359Z,8.70
2023-04-12T23:30:45.153Z,8.60
2023-04-12T23:33:12.670Z,8.60
2023-04-12T23:35:41.698Z,8.60
2023-04-12T23:38:10.085Z,8.60
2023-04-12T23:40:37.421Z,8.60
2023-04-12T23:43:04.694Z,8.60
2023-04-12T23:45:32.539Z,8.60
2023-04-12T23:47:59.888Z,8.60
2023-04-12T23:50:27.365Z,8.60
2023-04-12T23:52:54.632Z,8.60
2023-04-12T23:55:21.902Z,8.60
2023-04-12T23:57:49.187Z,8.60
